Time;durP1;ratioP1;P1;durP2;ratioP2;P2;SDS_P1;SDS_P2;PMS_P1;PMS_P2;Temp;Humidity;BMP_temperature;BMP_pressure;BME280_temperature;BME280_humidity;BME280_pressure;Samples;Min_cycle;Max_cycle;Signal;HPM_P1;HPM_P2
2023/05/26 00:00:30;;;;;;;8.47;6.00;;;19.30;63.90;;;;;;5072408;28;20603;-79
2023/05/26 00:02:57;;;;;;;8.03;5.53;;;19.30;64.00;;;;;;5072849;28;20213;-79
2023/05/26 00:05:25;;;;;;;7.50;5.43;;;19.30;64.00;;;;;;5072689;28;20225;-79
2023/05/26 00:07:53;;;;;;;9.07;6.47;;;19.20;63.90;;;;;;5072467;28;20283;-79
2023/05/26 00:10:20;;;;;;;7.33;6.03;;;19.20;64.10;;;;;;5072418;28;20212;-79
2023/05/26 00:12:47;;;;;;;8.63;6.30;;;19.20;64.30;;;;;;5072651;28;20566;-79
2023/05/26 00:15:16;;;;;;;6.73;6.03;;;19.20;64.60;;;;;;5072585;28;20209;-79
2023/05/26 00:17:42;;;;;;;7.13;6.33;;;19.20;64.60;;;;;;5072591;28;20275;-78
2023/05/26 00:20:10;;;;;;;9.33;6.43;;;19.10;64.50;;;;;;5072544;28;20205;-79
2023/05/26 00:22:37;;;;;;;6.73;5.97;;;19.10;64.70;;;;;;5072395;28;20457;-79
2023/05/26 00:25:04;;;;;;;7.43;5.90;;;19.00;64.60;;;;;;5072035;28;20223;-79
2023/05/26 00:27:31;;;;;;;6.87;6.17;;;19.00;64.70;;;;;;5072328;28;20196;-78
2023/05/26 00:29:58;;;;;;;6.50;5.63;;;19.00;64.70;;;;;;5072238;28;20209;-78
2023/05/26 00:32:27;;;;;;;9.83;6.40;;;19.00;65.00;;;;;;5076342;28;20212;-78
2023/05/26 00:34:54;;;;;;;8.67;6.13;;;18.90;65.00;;;;;;5076284;28;20447;-78
2023/05/26 00:37:22;;;;;;;8.00;6.27;;;18.90;65.20;;;;;;5076297;28;20475;-78
2023/05/26 00:39:49;;;;;;;7.53;5.80;;;18.90;65.40;;;;;;5076079;28;20966;-79
2023/05/26 00:42:16;;;;;;;7.17;5.67;;;18.80;65.30;;;;;;5076244;28;20461;-78
2023/05/26 00:44:43;;;;;;;6.33;5.53;;;18.80;65.40;;;;;;5075865;28;20744;-78
2023/05/26 00:47:10;;;;;;;8.40;6.47;;;18.80;65.70;;;;;;5076077;28;20300;-78
2023/05/26 00:49:39;;;;;;;8.53;6.60;;;18.80;65.90;;;;;;5075997;28;20952;-78
2023/05/26 00:52:07;;;;;;;7.37;6.37;;;18.70;66.00;;;;;;5076375;28;20221;-79
2023/05/26 00:54:34;;;;;;;7.53;6.33;;;18.70;66.00;;;;;;5041523;28;20803;-79
2023/05/26 00:57:02;;;;;;;6.97;6.23;;;18.70;66.10;;;;;;5076654;28;20570;-79
2023/05/26 00:59:29;;;;;;;7.23;6.00;;;18.70;66.10;;;;;;5076391;28;20482;-79
2023/05/26 01:01:56;;;;;;;6.83;5.93;;;18.70;66.20;;;;;;5076917;28;20497;-79
2023/05/26 01:04:24;;;;;;;8.23;6.23;;;18.70;66.10;;;;;;5076359;28;20938;-79
2023/05/26 01:06:52;;;;;;;6.63;5.87;;;18.70;66.10;;;;;;5076457;28;20541;-79
2023/05/26 01:09:20;;;;;;;7.53;5.97;;;18.70;66.00;;;;;;5068386;28;20446;-79
2023/05/26 01:11:54;;;;;;;8.93;6.10;;;18.70;66.10;;;;;;5076638;28;20205;-79
2023/05/26 01:14:32;;;;;;;6.90;5.80;;;18.70;66.10;;;;;;5076146;28;20232;-78
2023/05/26 01:17:03;;;;;;;6.70;5.80;;;18.70;66.10;;;;;;5076216;28;20462;-78
2023/05/26 01:20:07;;;;;;;6.50;5.83;;;18.60;66.00;;;;;;5076076;28;20766;-79
2023/05/26 01:22:57;;;;;;;6.43;5.40;;;18.60;66.40;;;;;;5076085;28;20814;-78
2023/05/26 01:25:31;;;;;;;7.17;5.87;;;18.60;66.30;;;;;;5076090;28;20229;-78
2023/05/26 01:28:06;;;;;;;10.37;6.47;;;18.60;66.00;;;;;;5075885;28;20446;-79
2023/05/26 01:30:35;;;;;;;7.10;5.90;;;18.60;66.00;;;;;;5076270;28;20486;-78
2023/05/26 01:33:02;;;;;;;7.67;6.43;;;18.60;65.80;;;;;;5076034;28;20443;-79
2023/05/26 01:35:29;;;;;;;7.50;6.13;;;18.60;65.90;;;;;;5024233;28;20208;-79
2023/05/26 01:37:59;;;;;;;8.93;5.97;;;18.50;65.80;;;;;;5075696;28;20233;-79
2023/05/26 01:40:26;;;;;;;11.47;6.37;;;18.50;65.90;;;;;;5075964;28;20685;-79
2023/05/26 01:43:00;;;;;;;7.73;5.97;;;18.40;65.80;;;;;;5074391;28;20209;-77
2023/05/26 01:45:34;;;;;;;6.67;5.97;;;18.40;66.00;;;;;;5076062;28;20217;-79
2023/05/26 01:48:03;;;;;;;8.27;6.73;;;18.30;66.10;;;;;;5075781;28;20450;-79
2023/05/26 01:50:35;;;;;;;7.33;5.90;;;18.30;66.30;;;;;;5075600;28;20939;-79
2023/05/26 01:53:07;;;;;;;8.37;6.70;;;18.30;66.40;;;;;;5058441;28;20455;-78
2023/05/26 01:55:36;;;;;;;6.57;5.87;;;18.30;66.50;;;;;;5075763;28;20821;-79
2023/05/26 01:58:03;;;;;;;8.97;6.03;;;18.20;66.40;;;;;;5075022;28;20479;-79
2023/05/26 02:00:32;;;;;;;9.80;6.50;;;18.20;66.50;;;;;;5057650;28;20451;-79
2023/05/26 02:02:58;;;;;;;6.77;5.73;;;18.20;66.50;;;;;;5075323;28;20447;-78
2023/05/26 02:05:25;;;;;;;6.57;5.87;;;18.20;66.60;;;;;;5075569;28;20452;-78
2023/05/26 02:07:52;;;;;;;7.60;6.73;;;18.20;66.90;;;;;;5075433;28;20457;-78
2023/05/26 02:10:19;;;;;;;8.60;6.17;;;18.20;67.10;;;;;;5075420;28;20458;-79
2023/05/26 02:12:46;;;;;;;9.00;6.57;;;18.20;67.10;;;;;;5075243;28;20479;-79
2023/05/26 02:15:13;;;;;;;7.93;5.93;;;18.10;67.00;;;;;;5075220;28;20473;-78
2023/05/26 02:17:41;;;;;;;10.63;6.60;;;18.10;67.00;;;;;;5075268;28;20460;-79
2023/05/26 02:20:09;;;;;;;6.87;6.13;;;18.10;67.00;;;;;;5075271;28;20545;-79
2023/05/26 02:22:36;;;;;;;6.23;5.57;;;18.20;67.10;;;;;;5074378;28;20207;-78
2023/05/26 02:25:03;;;;;;;9.03;6.10;;;18.10;67.00;;;;;;5074109;28;20471;-79
2023/05/26 02:27:30;;;;;;;8.70;6.30;;;18.20;67.10;;;;;;5073684;28;20209;-78
2023/05/26 02:29:58;;;;;;;8.83;6.50;;;18.20;67.10;;;;;;5074366;28;20468;-78
2023/05/26 02:32:25;;;;;;;7.00;5.50;;;18.20;67.00;;;;;;5073994;28;20456;-78
2023/05/26 02:34:53;;;;;;;9.37;5.80;;;18.20;66.90;;;;;;5073797;28;20266;-78
2023/05/26 02:37:22;;;;;;;7.23;5.50;;;18.20;66.80;;;;;;5056048;28;20778;-79
2023/05/26 02:39:48;;;;;;;10.37;6.30;;;18.20;66.80;;;;;;5074057;28;20526;-79
2023/05/26 02:42:15;;;;;;;8.47;6.17;;;18.20;66.70;;;;;;5073618;28;20466;-79
2023/05/26 02:44:42;;;;;;;7.80;5.67;;;18.30;66.80;;;;;;5073652;28;20237;-79
2023/05/26 02:47:09;;;;;;;7.13;6.43;;;18.30;66.80;;;;;;5073760;28;20534;-79
2023/05/26 02:49:36;;;;;;;7.20;6.10;;;18.30;66.80;;;;;;5073851;28;20819;-77
2023/05/26 02:52:05;;;;;;;7.80;5.83;;;18.30;66.90;;;;;;5073822;28;20213;-77
2023/05/26 02:54:31;;;;;;;7.27;6.40;;;18.20;66.90;;;;;;5055261;28;20436;-78
2023/05/26 02:56:58;;;;;;;11.70;5.93;;;18.20;66.80;;;;;;5073749;28;20475;-78
2023/05/26 02:59:25;;;;;;;7.53;6.73;;;18.20;66.90;;;;;;5055776;28;21109;-77
2023/05/26 03:01:52;;;;;;;8.60;6.40;;;18.20;66.90;;;;;;5073453;28;20458;-77
2023/05/26 03:04:19;;;;;;;7.67;6.43;;;18.20;67.00;;;;;;5073517;28;20465;-79
2023/05/26 03:06:46;;;;;;;8.53;6.07;;;18.20;67.10;;;;;;5073716;28;20451;-79
2023/05/26 03:09:14;;;;;;;9.60;7.00;;;18.20;67.70;;;;;;5073287;28;20228;-79
2023/05/26 03:11:41;;;;;;;10.03;6.30;;;18.20;67.00;;;;;;5073230;28;20926;-78
2023/05/26 03:14:08;;;;;;;9.37;6.70;;;18.20;66.90;;;;;;5073507;28;20479;-79
2023/05/26 03:16:35;;;;;;;8.73;6.50;;;18.10;66.90;;;;;;5073005;28;20858;-79
2023/05/26 03:19:01;;;;;;;7.80;6.23;;;18.10;67.10;;;;;;5055352;28;20479;-79
2023/05/26 03:21:28;;;;;;;8.80;6.50;;;18.10;67.20;;;;;;5073231;28;20451;-79
2023/05/26 03:23:55;;;;;;;11.97;7.70;;;18.10;67.20;;;;;;5055461;28;20832;-78
2023/05/26 03:26:23;;;;;;;9.13;7.20;;;18.00;67.10;;;;;;5073331;28;20451;-79
2023/05/26 03:28:50;;;;;;;10.40;6.90;;;18.00;67.10;;;;;;5072673;28;20506;-77
2023/05/26 03:31:17;;;;;;;8.07;7.17;;;18.00;67.10;;;;;;5072906;28;20461;-78
2023/05/26 03:33:45;;;;;;;9.60;6.77;;;18.00;67.10;;;;;;5072934;28;20969;-78
2023/05/26 03:36:11;;;;;;;8.77;6.53;;;18.00;67.10;;;;;;5073158;28;20455;-78
2023/05/26 03:38:38;;;;;;;8.17;6.83;;;18.10;67.00;;;;;;5072413;28;20497;-79
2023/05/26 03:41:05;;;;;;;7.63;6.83;;;18.00;67.60;;;;;;5072967;28;20498;-79
2023/05/26 03:43:33;;;;;;;11.03;7.63;;;18.10;66.90;;;;;;5072850;28;20446;-78
2023/05/26 03:46:01;;;;;;;8.70;7.57;;;18.00;66.60;;;;;;5054897;28;20470;-78
2023/05/26 03:48:29;;;;;;;11.03;6.97;;;18.00;66.60;;;;;;5054807;28;20544;-78
2023/05/26 03:50:57;;;;;;;8.67;7.03;;;18.00;66.50;;;;;;5055225;28;20973;-78
2023/05/26 03:53:24;;;;;;;8.57;7.63;;;18.00;66.50;;;;;;5072092;28;20472;-79
2023/05/26 03:55:51;;;;;;;8.33;6.47;;;18.00;66.40;;;;;;5073022;28;20451;-78
2023/05/26 03:58:18;;;;;;;8.13;6.40;;;18.00;66.30;;;;;;5072477;28;20212;-79
2023/05/26 04:00:47;;;;;;;7.83;6.93;;;17.90;66.30;;;;;;5072694;28;20471;-78
2023/05/26 04:03:15;;;;;;;8.57;6.90;;;17.90;66.30;;;;;;5072456;28;20466;-79
2023/05/26 04:05:42;;;;;;;8.73;6.60;;;17.90;66.40;;;;;;5072064;28;20454;-79
2023/05/26 04:08:09;;;;;;;10.03;6.70;;;17.90;66.40;;;;;;5072308;28;20476;-79
2023/05/26 04:10:36;;;;;;;8.70;6.83;;;17.90;66.30;;;;;;5054889;28;20929;-79
2023/05/26 04:13:03;;;;;;;9.60;7.17;;;17.80;66.30;;;;;;5072625;28;20483;-79
2023/05/26 04:15:30;;;;;;;12.27;7.40;;;17.80;66.40;;;;;;5072534;28;20534;-79
2023/05/26 04:17:58;;;;;;;10.70;7.10;;;17.80;66.40;;;;;;5072220;28;21000;-78
2023/05/26 04:20:25;;;;;;;9.13;7.43;;;17.80;66.60;;;;;;5072114;28;21152;-79
2023/05/26 04:22:52;;;;;;;11.20;7.33;;;17.80;66.70;;;;;;5072034;28;20465;-78
2023/05/26 04:25:19;;;;;;;10.97;7.30;;;17.80;66.90;;;;;;5054566;28;20447;-78
2023/05/26 04:27:46;;;;;;;12.17;7.40;;;17.80;67.60;;;;;;5072530;28;20841;-79
2023/05/26 04:30:16;;;;;;;13.10;7.60;;;17.70;67.60;;;;;;5072448;28;20854;-78
2023/05/26 04:32:44;;;;;;;10.47;7.43;;;17.70;68.00;;;;;;5072188;28;20475;-79
2023/05/26 04:35:12;;;;;;;8.07;7.20;;;17.70;68.10;;;;;;5072763;28;20451;-79
2023/05/26 04:37:40;;;;;;;7.73;6.60;;;17.70;68.20;;;;;;5071292;28;20459;-79
2023/05/26 04:40:09;;;;;;;10.83;7.13;;;17.70;68.00;;;;;;5071280;28;20487;-77
2023/05/26 04:42:36;;;;;;;8.17;7.00;;;17.70;68.10;;;;;;5071844;28;20447;-78
2023/05/26 04:45:04;;;;;;;10.47;7.27;;;17.70;67.80;;;;;;5071787;28;20553;-79
2023/05/26 04:47:34;;;;;;;9.17;7.17;;;17.70;68.00;;;;;;5072294;28;20451;-78
2023/05/26 04:50:01;;;;;;;9.17;6.83;;;17.70;68.20;;;;;;5054746;28;21117;-79
2023/05/26 04:52:30;;;;;;;10.27;7.13;;;17.70;68.40;;;;;;5071920;28;20479;-78
2023/05/26 04:54:57;;;;;;;17.07;7.47;;;17.70;68.30;;;;;;5054249;28;20450;-79
2023/05/26 04:57:24;;;;;;;19.97;9.73;;;17.70;68.50;;;;;;5071854;28;20483;-79
2023/05/26 04:59:51;;;;;;;10.87;6.50;;;17.80;69.10;;;;;;5053893;28;20692;-79
2023/05/26 05:02:18;;;;;;;17.53;8.37;;;17.80;68.80;;;;;;5071782;28;21047;-79
2023/05/26 05:04:45;;;;;;;12.67;7.90;;;17.80;68.70;;;;;;5071784;28;20478;-81
2023/05/26 05:07:12;;;;;;;13.23;7.57;;;17.90;68.70;;;;;;5054307;28;20875;-79
2023/05/26 05:09:40;;;;;;;8.97;6.47;;;17.90;68.90;;;;;;5072032;28;20446;-80
2023/05/26 05:12:07;;;;;;;8.43;6.83;;;17.90;68.80;;;;;;5071639;28;20581;-78
2023/05/26 05:14:34;;;;;;;10.53;7.13;;;17.90;68.40;;;;;;5053813;28;20920;-79
2023/05/26 05:17:02;;;;;;;8.90;6.97;;;17.90;68.20;;;;;;5073901;28;20566;-79
2023/05/26 05:19:29;;;;;;;8.67;6.67;;;18.00;68.30;;;;;;5075482;28;20574;-78
2023/05/26 05:21:56;;;;;;;9.57;7.13;;;18.00;68.10;;;;;;5075316;28;20508;-79
2023/05/26 05:24:23;;;;;;;10.37;7.17;;;18.00;67.90;;;;;;5075512;28;20477;-80
2023/05/26 05:26:51;;;;;;;11.37;7.33;;;18.10;67.80;;;;;;5075277;28;20622;-79
2023/05/26 05:29:18;;;;;;;10.30;6.90;;;18.10;67.80;;;;;;5075110;28;20448;-79
2023/05/26 05:31:45;;;;;;;8.73;7.30;;;18.10;67.60;;;;;;5039933;28;20447;-79
2023/05/26 05:34:12;;;;;;;9.80;7.43;;;18.20;67.60;;;;;;5075228;28;20526;-78
2023/05/26 05:36:40;;;;;;;9.30;6.93;;;18.20;67.40;;;;;;5075372;28;20477;-79
2023/05/26 05:39:07;;;;;;;7.53;6.73;;;18.20;67.30;;;;;;5075000;28;20288;-79
2023/05/26 05:41:35;;;;;;;8.07;6.60;;;18.30;67.40;;;;;;5074942;28;20554;-79
2023/05/26 05:44:03;;;;;;;7.83;6.87;;;18.30;67.30;;;;;;5075107;28;20524;-80
2023/05/26 05:46:30;;;;;;;10.97;7.70;;;18.40;67.10;;;;;;5075179;28;20233;-79
2023/05/26 05:48:57;;;;;;;11.30;6.83;;;18.40;67.10;;;;;;5074873;28;20559;-79
2023/05/26 05:51:24;;;;;;;10.87;6.90;;;18.40;67.00;;;;;;5074650;28;20205;-79
2023/05/26 05:53:51;;;;;;;8.80;6.93;;;18.40;67.10;;;;;;5074836;28;20691;-78
2023/05/26 05:56:18;;;;;;;9.80;6.60;;;18.50;67.90;;;;;;5074513;28;20476;-78
2023/05/26 05:58:45;;;;;;;7.37;5.90;;;18.50;67.00;;;;;;5023023;28;20201;-79
2023/05/26 06:01:13;;;;;;;11.80;7.27;;;18.50;67.10;;;;;;5074880;28;20505;-77
2023/05/26 06:03:40;;;;;;;10.77;6.40;;;18.60;66.50;;;;;;5074793;28;20534;-81
2023/05/26 06:06:08;;;;;;;8.07;6.80;;;18.70;66.40;;;;;;5074638;28;20519;-79
2023/05/26 06:08:34;;;;;;;7.83;6.27;;;18.70;66.40;;;;;;5074578;28;20233;-78
2023/05/26 06:11:02;;;;;;;10.47;7.10;;;18.70;66.00;;;;;;5074625;28;20443;-79
2023/05/26 06:13:29;;;;;;;8.37;6.63;;;18.70;66.10;;;;;;5074053;28;20549;-79
2023/05/26 06:15:56;;;;;;;7.93;6.70;;;18.80;66.10;;;;;;5073944;28;20640;-77
2023/05/26 06:18:24;;;;;;;8.63;6.40;;;18.80;66.20;;;;;;5022297;28;20244;-80
2023/05/26 06:20:51;;;;;;;9.73;6.20;;;18.90;66.30;;;;;;5073538;28;20771;-79
2023/05/26 06:23:19;;;;;;;9.73;6.13;;;19.00;66.10;;;;;;5083288;28;20549;-76
2023/05/26 06:25:46;;;;;;;8.23;6.40;;;19.00;66.00;;;;;;5090967;28;20261;-75
2023/05/26 06:28:14;;;;;;;8.47;6.70;;;19.10;66.30;;;;;;5091196;28;20229;-75
2023/05/26 06:30:41;;;;;;;9.47;5.87;;;19.10;66.10;;;;;;5091952;28;20201;-76
2023/05/26 06:33:08;;;;;;;12.03;7.33;;;19.20;65.80;;;;;;5090942;28;20225;-76
2023/05/26 06:35:36;;;;;;;7.90;6.30;;;19.30;65.60;;;;;;5080831;28;20286;-79
2023/05/26 06:38:03;;;;;;;6.70;5.83;;;19.30;65.40;;;;;;5073982;28;20300;-79
2023/05/26 06:40:30;;;;;;;8.70;6.70;;;19.40;65.20;;;;;;5074074;28;20267;-79
2023/05/26 06:42:57;;;;;;;8.37;6.60;;;19.50;64.90;;;;;;5074073;28;20204;-78
2023/05/26 06:45:24;;;;;;;9.13;6.57;;;19.50;64.20;;;;;;5074048;28;20323;-79
2023/05/26 06:47:51;;;;;;;8.73;6.37;;;19.60;64.70;;;;;;5056285;28;20236;-78
2023/05/26 06:50:18;;;;;;;7.13;6.00;;;19.70;64.90;;;;;;5073648;28;20201;-77
2023/05/26 06:52:47;;;;;;;12.03;7.30;;;19.80;65.10;;;;;;5074049;28;20205;-80
2023/05/26 06:55:14;;;;;;;10.90;6.53;;;19.80;64.90;;;;;;5073681;28;20740;-79
2023/05/26 06:57:42;;;;;;;9.40;6.13;;;19.90;64.60;;;;;;5073578;28;20205;-80
2023/05/26 07:00:10;;;;;;;10.37;5.93;;;20.00;64.60;;;;;;5073868;28;20231;-80
2023/05/26 07:02:37;;;;;;;8.73;6.13;;;20.00;64.80;;;;;;5073541;28;20237;-78
2023/05/26 07:05:04;;;;;;;9.10;5.90;;;20.10;64.50;;;;;;5073446;28;20315;-81
2023/05/26 07:07:30;;;;;;;8.77;6.63;;;20.20;63.80;;;;;;5073255;28;20690;-79
2023/05/26 07:09:59;;;;;;;9.73;6.17;;;20.30;64.00;;;;;;5073582;28;20200;-78
2023/05/26 07:12:26;;;;;;;7.60;6.30;;;20.40;63.80;;;;;;5073224;28;20300;-76
2023/05/26 07:14:52;;;;;;;9.80;7.00;;;20.50;63.60;;;;;;5073344;28;20212;-79
2023/05/26 07:17:20;;;;;;;10.23;6.53;;;20.60;63.50;;;;;;5073143;28;20232;-78
2023/05/26 07:19:47;;;;;;;9.70;6.13;;;20.60;63.30;;;;;;5073637;28;20648;-77
2023/05/26 07:22:15;;;;;;;11.87;6.80;;;20.70;63.20;;;;;;5073499;28;20298;-77
2023/05/26 07:24:42;;;;;;;10.97;6.97;;;20.80;62.90;;;;;;5073291;28;20570;-79
2023/05/26 07:27:10;;;;;;;12.10;6.47;;;20.80;62.20;;;;;;5073216;28;20251;-78
2023/05/26 07:29:39;;;;;;;10.07;6.13;;;20.90;62.60;;;;;;5073054;28;20239;-78
2023/05/26 07:32:06;;;;;;;11.00;6.43;;;21.00;62.70;;;;;;5055235;28;20209;-78
2023/05/26 07:34:33;;;;;;;10.60;6.73;;;21.10;62.10;;;;;;5072885;28;20278;-78
2023/05/26 07:37:00;;;;;;;10.57;6.80;;;21.20;62.40;;;;;;5055447;28;20316;-78
2023/05/26 07:39:27;;;;;;;8.77;6.17;;;21.30;61.80;;;;;;5073057;28;20295;-78
2023/05/26 07:41:54;;;;;;;7.73;6.27;;;21.30;61.50;;;;;;5072960;28;20308;-78
2023/05/26 07:44:23;;;;;;;9.10;6.30;;;21.50;61.60;;;;;;5072841;28;20224;-78
2023/05/26 07:46:50;;;;;;;9.50;6.03;;;21.50;61.80;;;;;;5072715;28;20300;-80
2023/05/26 07:49:17;;;;;;;6.83;5.80;;;21.60;62.00;;;;;;5073011;28;20642;-78
2023/05/26 07:51:45;;;;;;;9.80;5.73;;;21.70;61.20;;;;;;5072962;28;20689;-78
2023/05/26 07:54:12;;;;;;;9.23;6.33;;;21.80;61.80;;;;;;5072715;28;20665;-79
2023/05/26 07:56:40;;;;;;;9.27;6.17;;;21.90;61.40;;;;;;5072672;28;20725;-80
2023/05/26 07:59:07;;;;;;;9.80;6.20;;;22.00;61.20;;;;;;5072960;28;20302;-79
2023/05/26 08:01:36;;;;;;;11.30;6.23;;;22.10;60.70;;;;;;5072467;28;20319;-80
2023/05/26 08:04:03;;;;;;;9.80;6.33;;;22.10;60.60;;;;;;5072467;28;20271;-78
2023/05/26 08:06:30;;;;;;;10.40;6.57;;;22.20;61.00;;;;;;5020880;28;20211;-79
2023/05/26 08:08:56;;;;;;;7.77;6.60;;;22.30;60.20;;;;;;5072244;28;20728;-80
2023/05/26 08:11:23;;;;;;;11.13;6.17;;;22.40;60.00;;;;;;5073103;28;20233;-81
2023/05/26 08:13:50;;;;;;;6.60;5.67;;;22.40;59.70;;;;;;5072567;28;20256;-80
2023/05/26 08:16:17;;;;;;;7.90;6.10;;;22.50;59.80;;;;;;5072441;28;20293;-79
2023/05/26 08:18:46;;;;;;;9.67;6.43;;;22.60;59.60;;;;;;5072579;28;20913;-75
2023/05/26 08:21:13;;;;;;;12.83;6.03;;;22.60;59.40;;;;;;5072675;28;20243;-79
2023/05/26 08:23:41;;;;;;;7.30;6.30;;;22.70;59.90;;;;;;5072530;28;20205;-78
2023/05/26 08:26:08;;;;;;;6.47;5.10;;;22.80;59.20;;;;;;5072798;28;20590;-79
2023/05/26 08:28:35;;;;;;;8.47;6.30;;;22.90;58.90;;;;;;5072685;28;20217;-78
2023/05/26 08:31:02;;;;;;;10.90;5.77;;;23.00;59.40;;;;;;5020899;28;20205;-81
2023/05/26 08:33:29;;;;;;;10.50;6.07;;;23.00;58.80;;;;;;5072446;28;20320;-78
2023/05/26 08:35:58;;;;;;;9.20;6.47;;;23.10;58.80;;;;;;5072752;28;20228;-78
2023/05/26 08:38:25;;;;;;;8.63;5.77;;;23.20;59.10;;;;;;5020755;28;20292;-78
2023/05/26 08:40:56;;;;;;;10.20;6.07;;;23.20;58.70;;;;;;5072568;28;20282;-78
2023/05/26 08:43:28;;;;;;;9.37;6.27;;;23.30;58.20;;;;;;5072464;28;20232;-79
2023/05/26 08:45:56;;;;;;;9.87;6.00;;;23.40;58.00;;;;;;5072015;28;20239;-80
2023/05/26 08:48:24;;;;;;;8.27;6.17;;;23.40;58.50;;;;;;5055313;28;20280;-81
2023/05/26 08:50:55;;;;;;;11.33;6.03;;;23.50;58.50;;;;;;5072672;28;20208;-79
2023/05/26 08:53:24;;;;;;;9.87;6.33;;;23.60;57.90;;;;;;5076217;28;20231;-78
2023/05/26 08:55:51;;;;;;;8.50;6.20;;;23.60;58.80;;;;;;5076241;28;20205;-79
2023/05/26 08:58:20;;;;;;;9.70;6.47;;;23.80;58.50;;;;;;5075993;28;20243;-80
2023/05/26 09:00:47;;;;;;;9.17;5.93;;;23.80;57.60;;;;;;5075979;28;20692;-78
2023/05/26 09:03:14;;;;;;;8.00;6.07;;;23.90;57.80;;;;;;5076019;28;20243;-77
2023/05/26 09:05:41;;;;;;;9.30;5.87;;;23.90;57.30;;;;;;5075841;28;20319;-80
2023/05/26 09:08:12;;;;;;;8.23;5.87;;;24.00;57.30;;;;;;5076029;28;20283;-79
2023/05/26 09:10:41;;;;;;;8.87;5.73;;;24.10;56.80;;;;;;5076225;28;20270;-76
2023/05/26 09:13:09;;;;;;;9.60;5.87;;;24.20;57.20;;;;;;5075954;28;20269;-79
2023/05/26 09:15:37;;;;;;;8.67;6.10;;;24.30;57.50;;;;;;5075933;28;20234;-78
2023/05/26 09:18:04;;;;;;;9.80;5.97;;;24.40;57.00;;;;;;5076019;28;20235;-82
2023/05/26 09:20:32;;;;;;;9.73;6.00;;;24.40;56.90;;;;;;5075757;28;20225;-75
2023/05/26 09:23:02;;;;;;;8.30;5.97;;;24.40;56.90;;;;;;5058049;28;20571;-76
2023/05/26 09:25:31;;;;;;;7.90;5.83;;;24.50;56.30;;;;;;5076052;28;20820;-79
2023/05/26 09:28:03;;;;;;;8.73;5.67;;;24.60;56.50;;;;;;5075743;28;21057;-78
2023/05/26 09:30:35;;;;;;;12.87;6.10;;;24.70;56.00;;;;;;5076027;28;20615;-79
2023/05/26 09:33:04;;;;;;;6.13;5.43;;;24.80;55.20;;;;;;5075647;28;20312;-79
2023/05/26 09:35:36;;;;;;;7.07;5.83;;;24.90;55.60;;;;;;5075658;28;20237;-77
2023/05/26 09:38:05;;;;;;;10.23;5.57;;;24.90;55.80;;;;;;5075567;28;20232;-76
2023/05/26 09:40:32;;;;;;;8.23;5.63;;;25.00;55.30;;;;;;5075182;28;20221;-80
2023/05/26 09:42:59;;;;;;;6.07;5.10;;;25.10;55.60;;;;;;5075080;28;20312;-78
2023/05/26 09:45:35;;;;;;;8.17;5.27;;;25.20;54.80;;;;;;5075067;28;20219;-75
2023/05/26 09:48:03;;;;;;;7.97;5.60;;;25.30;55.00;;;;;;5075176;28;20201;-79
2023/05/26 09:50:32;;;;;;;8.20;5.90;;;25.40;54.60;;;;;;5075457;28;20312;-78
2023/05/26 09:53:01;;;;;;;8.93;5.30;;;25.40;54.60;;;;;;5075265;28;20228;-77
2023/05/26 09:55:28;;;;;;;6.63;5.53;;;25.50;54.60;;;;;;5023641;28;20300;-78
2023/05/26 09:57:58;;;;;;;9.13;6.00;;;25.60;54.40;;;;;;5074871;28;20208;-80
2023/05/26 10:00:26;;;;;;;9.90;5.20;;;25.60;53.50;;;;;;5075020;28;20669;-75
2023/05/26 10:02:55;;;;;;;8.87;5.87;;;25.70;53.40;;;;;;5073445;28;20232;-78
2023/05/26 10:05:23;;;;;;;6.20;4.70;;;25.70;53.60;;;;;;5075240;28;20212;-76
2023/05/26 10:07:52;;;;;;;8.47;5.63;;;25.80;53.20;;;;;;5074972;28;20232;-80
2023/05/26 10:10:20;;;;;;;7.03;5.63;;;25.80;52.60;;;;;;5057369;28;20209;-79
2023/05/26 10:12:47;;;;;;;8.20;5.53;;;25.90;53.10;;;;;;5074595;28;20323;-76
2023/05/26 10:15:15;;;;;;;7.80;5.40;;;26.00;53.00;;;;;;5074706;28;20638;-75
2023/05/26 10:17:43;;;;;;;10.83;5.40;;;26.00;52.80;;;;;;5074699;28;20215;-76
2023/05/26 10:20:12;;;;;;;6.03;5.03;;;26.20;52.10;;;;;;5074799;28;20239;-79
2023/05/26 10:22:45;;;;;;;9.27;5.57;;;26.20;52.70;;;;;;5074263;28;20233;-78
2023/05/26 10:25:18;;;;;;;7.13;5.23;;;26.30;52.70;;;;;;5074655;28;20204;-79
2023/05/26 10:27:54;;;;;;;8.37;5.33;;;26.40;52.10;;;;;;5074200;28;20324;-79
2023/05/26 10:30:23;;;;;;;7.80;4.93;;;26.50;52.10;;;;;;5074431;28;20301;-76
2023/05/26 10:32:52;;;;;;;7.33;5.60;;;26.50;52.00;;;;;;5074713;28;20516;-78
2023/05/26 10:35:26;;;;;;;7.13;5.50;;;26.60;51.40;;;;;;5074574;28;20293;-75
2023/05/26 10:37:56;;;;;;;8.43;5.23;;;26.60;51.60;;;;;;5074861;28;20235;-78
2023/05/26 10:40:28;;;;;;;7.17;4.80;;;26.70;51.80;;;;;;5074636;28;20235;-79
2023/05/26 10:43:00;;;;;;;8.87;5.67;;;26.80;51.50;;;;;;5074626;28;20281;-78
2023/05/26 10:45:31;;;;;;;9.20;5.87;;;26.90;51.30;;;;;;5074178;28;20577;-77
2023/05/26 10:48:01;;;;;;;8.47;5.80;;;26.90;50.50;;;;;;5056047;28;20627;-79
2023/05/26 10:51:05;;;;;;;8.77;6.23;;;27.00;50.50;;;;;;5074225;28;20195;-79
2023/05/26 10:53:34;;;;;;;8.70;5.83;;;27.00;50.50;;;;;;5074080;28;20225;-79
2023/05/26 10:56:04;;;;;;;6.00;4.53;;;27.00;51.50;;;;;;5073717;28;20240;-79
2023/05/26 10:58:36;;;;;;;5.80;4.73;;;27.10;51.20;;;;;;5073829;28;20225;-80
2023/05/26 11:01:04;;;;;;;6.87;4.57;;;27.10;49.90;;;;;;5073961;28;20264;-79
2023/05/26 11:03:37;;;;;;;7.03;4.80;;;27.20;50.20;;;;;;5073973;28;20252;-79
2023/05/26 11:06:06;;;;;;;9.07;5.37;;;27.30;48.90;;;;;;5074037;28;20236;-78
2023/05/26 11:08:38;;;;;;;6.47;5.50;;;27.30;49.60;;;;;;5073700;28;20275;-79
2023/05/26 11:11:06;;;;;;;7.83;5.63;;;27.40;49.60;;;;;;5073417;28;20569;-79
2023/05/26 11:13:46;;;;;;;9.43;5.50;;;27.40;49.80;;;;;;5073329;28;20699;-78
2023/05/26 11:16:25;;;;;;;6.87;5.10;;;27.50;49.60;;;;;;5073312;28;20302;-78
2023/05/26 11:18:54;;;;;;;9.13;5.03;;;27.60;50.60;;;;;;5073387;28;20235;-78
2023/05/26 11:21:25;;;;;;;7.03;5.20;;;27.60;49.70;;;;;;5073481;28;20576;-79
2023/05/26 11:23:53;;;;;;;8.10;5.40;;;27.80;49.20;;;;;;5073315;28;20213;-78
2023/05/26 11:26:21;;;;;;;10.13;5.20;;;27.80;49.40;;;;;;5073522;28;20714;-78
2023/05/26 11:28:49;;;;;;;7.67;4.90;;;27.90;49.50;;;;;;5073485;28;20213;-79
2023/05/26 11:31:18;;;;;;;7.23;4.87;;;27.90;49.20;;;;;;5073476;28;20758;-78
2023/05/26 11:33:48;;;;;;;6.63;4.80;;;28.00;48.40;;;;;;5055413;28;20207;-80
2023/05/26 11:36:17;;;;;;;5.57;4.47;;;28.00;48.50;;;;;;5072979;28;20283;-77
2023/05/26 11:38:48;;;;;;;7.93;5.27;;;28.10;47.90;;;;;;5072963;28;20239;-77
2023/05/26 11:41:16;;;;;;;6.07;4.23;;;28.10;48.30;;;;;;5073350;28;20221;-76
2023/05/26 11:43:45;;;;;;;5.83;4.57;;;28.20;47.30;;;;;;5073330;28;20232;-79
2023/05/26 11:46:15;;;;;;;8.20;5.20;;;28.20;47.90;;;;;;5072709;28;20585;-78
2023/05/26 11:48:44;;;;;;;6.97;4.60;;;28.40;48.40;;;;;;5072859;28;20239;-77
2023/05/26 11:51:12;;;;;;;6.57;4.53;;;28.40;47.80;;;;;;5073280;28;20307;-79
2023/05/26 11:53:41;;;;;;;5.47;4.73;;;28.50;48.20;;;;;;5072469;28;20324;-78
2023/05/26 11:56:11;;;;;;;6.83;4.90;;;28.60;46.50;;;;;;5072769;28;20216;-80
2023/05/26 11:58:41;;;;;;;5.23;4.73;;;28.70;46.40;;;;;;5072300;28;20583;-78
2023/05/26 12:01:09;;;;;;;5.30;4.80;;;28.70;46.30;;;;;;5037618;28;20565;-77
2023/05/26 12:03:38;;;;;;;7.93;4.70;;;28.70;45.80;;;;;;5072795;28;20255;-78
2023/05/26 12:06:11;;;;;;;11.00;5.10;;;28.70;45.00;;;;;;5072800;28;20212;-79
2023/05/26 12:08:48;;;;;;;7.40;4.63;;;28.70;45.40;;;;;;5072388;28;20746;-80
2023/05/26 12:11:20;;;;;;;6.10;4.37;;;28.70;45.60;;;;;;5072882;28;20204;-80
2023/05/26 12:13:48;;;;;;;5.90;4.13;;;28.80;44.80;;;;;;5072908;28;20196;-79
2023/05/26 12:16:23;;;;;;;5.97;4.70;;;28.90;44.90;;;;;;5072311;28;20720;-78
2023/05/26 12:18:55;;;;;;;5.43;4.70;;;28.90;43.90;;;;;;5054789;28;20565;-78
2023/05/26 12:21:23;;;;;;;7.17;4.53;;;29.00;45.10;;;;;;5072663;28;20282;-77
2023/05/26 12:23:51;;;;;;;7.30;4.83;;;29.10;44.70;;;;;;5072239;28;20230;-79
2023/05/26 12:26:22;;;;;;;5.63;4.50;;;29.20;45.10;;;;;;5063243;28;20212;-79
2023/05/26 12:29:09;;;;;;;5.60;4.37;;;29.20;44.40;;;;;;5072704;28;20624;-79
2023/05/26 12:31:44;;;;;;;6.43;4.60;;;29.20;44.10;;;;;;5021378;28;20744;-79
2023/05/26 12:34:14;;;;;;;5.30;4.80;;;29.20;44.00;;;;;;5073360;28;20189;-78
2023/05/26 12:36:41;;;;;;;7.63;4.57;;;29.30;43.60;;;;;;5072814;28;20736;-80
2023/05/26 12:39:08;;;;;;;5.30;4.80;;;29.30;44.60;;;;;;5072862;28;20664;-78
2023/05/26 12:41:37;;;;;;;6.73;5.20;;;29.30;43.90;;;;;;5072726;28;20700;-78
2023/05/26 12:44:04;;;;;;;6.27;4.53;;;29.40;43.50;;;;;;5037547;28;20201;-79
2023/05/26 12:46:31;;;;;;;4.73;4.27;;;29.50;44.10;;;;;;5073146;28;20630;-76
2023/05/26 12:48:59;;;;;;;7.70;4.90;;;29.60;43.70;;;;;;5055345;28;20217;-77
2023/05/26 12:51:27;;;;;;;5.23;4.57;;;29.60;43.10;;;;;;5072769;28;20204;-78